sensor_id;sensor_type;location;lat;lon;timestamp;temperature;humidity
39969;DHT22;25648;47.808;19.004;2022-10-16T00:00:36;22.90;59.80
39969;DHT22;25648;47.808;19.004;2022-10-16T00:03:03;22.90;59.70
39969;DHT22;25648;47.808;19.004;2022-10-16T00:05:29;22.70;59.10
39969;DHT22;25648;47.808;19.004;2022-10-16T00:07:55;22.70;59.60
39969;DHT22;25648;47.808;19.004;2022-10-16T00:10:20;22.60;59.30
39969;DHT22;25648;47.808;19.004;2022-10-16T00:12:46;22.60;58.90
39969;DHT22;25648;47.808;19.004;2022-10-16T00:15:12;22.30;59.00
39969;DHT22;25648;47.808;19.004;2022-10-16T00:17:38;21.60;60.40
39969;DHT22;25648;47.808;19.004;2022-10-16T00:20:04;21.20;61.50
39969;DHT22;25648;47.808;19.004;2022-10-16T00:22:30;21.00;61.90
39969;DHT22;25648;47.808;19.004;2022-10-16T00:24:56;21.00;61.40
39969;DHT22;25648;47.808;19.004;2022-10-16T00:27:22;21.00;61.90
39969;DHT22;25648;47.808;19.004;2022-10-16T00:29:51;20.90;61.90
39969;DHT22;25648;47.808;19.004;2022-10-16T00:32:18;20.90;62.10
39969;DHT22;25648;47.808;19.004;2022-10-16T00:34:44;20.90;62.30
39969;DHT22;25648;47.808;19.004;2022-10-16T00:37:09;20.70;62.80
39969;DHT22;25648;47.808;19.004;2022-10-16T00:39:35;20.70;63.00
39969;DHT22;25648;47.808;19.004;2022-10-16T00:42:01;20.70;63.30
39969;DHT22;25648;47.808;19.004;2022-10-16T00:44:46;20.40;63.90
39969;DHT22;25648;47.808;19.004;2022-10-16T00:49:48;20.10;64.40
39969;DHT22;25648;47.808;19.004;2022-10-16T00:52:15;20.00;64.40
39969;DHT22;25648;47.808;19.004;2022-10-16T00:54:41;19.90;65.00
39969;DHT22;25648;47.808;19.004;2022-10-16T00:57:08;19.60;64.70
39969;DHT22;25648;47.808;19.004;2022-10-16T00:59:39;19.60;64.50
39969;DHT22;25648;47.808;19.004;2022-10-16T01:02:10;19.70;64.00
39969;DHT22;25648;47.808;19.004;2022-10-16T01:04:49;19.70;64.00
39969;DHT22;25648;47.808;19.004;2022-10-16T01:12:49;20.00;63.70
39969;DHT22;25648;47.808;19.004;2022-10-16T01:17:47;20.40;63.50
39969;DHT22;25648;47.808;19.004;2022-10-16T01:20:26;20.90;62.00
39969;DHT22;25648;47.808;19.004;2022-10-16T01:28:21;21.70;60.10
39969;DHT22;25648;47.808;19.004;2022-10-16T01:30:52;21.90;59.70
39969;DHT22;25648;47.808;19.004;2022-10-16T01:33:23;22.00;59.60
39969;DHT22;25648;47.808;19.004;2022-10-16T01:35:55;22.20;58.90
39969;DHT22;25648;47.808;19.004;2022-10-16T01:38:36;22.30;58.90
39969;DHT22;25648;47.808;19.004;2022-10-16T01:41:11;22.40;58.80
39969;DHT22;25648;47.808;19.004;2022-10-16T01:43:45;22.20;58.20
39969;DHT22;25648;47.808;19.004;2022-10-16T01:46:14;22.10;58.80
39969;DHT22;25648;47.808;19.004;2022-10-16T01:48:41;22.20;58.60
39969;DHT22;25648;47.808;19.004;2022-10-16T01:51:10;21.90;58.50
39969;DHT22;25648;47.808;19.004;2022-10-16T01:53:37;21.90;59.00
39969;DHT22;25648;47.808;19.004;2022-10-16T01:56:06;22.10;59.10
39969;DHT22;25648;47.808;19.004;2022-10-16T01:58:37;21.90;58.90
39969;DHT22;25648;47.808;19.004;2022-10-16T02:01:07;21.90;59.30
39969;DHT22;25648;47.808;19.004;2022-10-16T02:03:37;22.20;58.80
39969;DHT22;25648;47.808;19.004;2022-10-16T02:06:03;22.20;59.00
39969;DHT22;25648;47.808;19.004;2022-10-16T02:08:29;22.20;57.90
39969;DHT22;25648;47.808;19.004;2022-10-16T02:10:57;22.00;58.70
39969;DHT22;25648;47.808;19.004;2022-10-16T02:13:33;21.90;58.90
39969;DHT22;25648;47.808;19.004;2022-10-16T02:15:59;21.60;59.20
39969;DHT22;25648;47.808;19.004;2022-10-16T02:18:26;20.90;60.40
39969;DHT22;25648;47.808;19.004;2022-10-16T02:21:01;20.60;61.00
39969;DHT22;25648;47.808;19.004;2022-10-16T02:23:37;20.50;61.60
39969;DHT22;25648;47.808;19.004;2022-10-16T02:26:10;20.30;61.60
39969;DHT22;25648;47.808;19.004;2022-10-16T02:28:50;20.20;62.10
39969;DHT22;25648;47.808;19.004;2022-10-16T02:31:23;19.90;62.70
39969;DHT22;25648;47.808;19.004;2022-10-16T02:33:53;19.90;63.00
39969;DHT22;25648;47.808;19.004;2022-10-16T02:36:20;20.00;63.30
39969;DHT22;25648;47.808;19.004;2022-10-16T02:38:47;20.00;63.00
39969;DHT22;25648;47.808;19.004;2022-10-16T02:41:14;20.50;62.50
39969;DHT22;25648;47.808;19.004;2022-10-16T02:43:39;20.90;61.20
39969;DHT22;25648;47.808;19.004;2022-10-16T02:46:05;21.10;60.10
39969;DHT22;25648;47.808;19.004;2022-10-16T02:48:31;21.20;60.10
39969;DHT22;25648;47.808;19.004;2022-10-16T02:50:57;21.20;59.50
39969;DHT22;25648;47.808;19.004;2022-10-16T02:53:22;21.00;59.70
39969;DHT22;25648;47.808;19.004;2022-10-16T02:55:48;20.90;60.30
39969;DHT22;25648;47.808;19.004;2022-10-16T02:58:14;20.60;60.50
39969;DHT22;25648;47.808;19.004;2022-10-16T03:00:39;20.20;61.50
39969;DHT22;25648;47.808;19.004;2022-10-16T03:03:05;19.70;62.50
39969;DHT22;25648;47.808;19.004;2022-10-16T03:05:31;19.60;63.20
39969;DHT22;25648;47.808;19.004;2022-10-16T03:07:56;19.70;63.00
39969;DHT22;25648;47.808;19.004;2022-10-16T03:10:25;19.80;63.10
39969;DHT22;25648;47.808;19.004;2022-10-16T03:12:50;20.00;62.00
39969;DHT22;25648;47.808;19.004;2022-10-16T03:15:16;20.30;61.70
39969;DHT22;25648;47.808;19.004;2022-10-16T03:17:42;20.60;60.90
39969;DHT22;25648;47.808;19.004;2022-10-16T03:20:08;20.80;60.10
39969;DHT22;25648;47.808;19.004;2022-10-16T03:22:34;20.90;60.30
39969;DHT22;25648;47.808;19.004;2022-10-16T03:25:00;20.90;60.20
39969;DHT22;25648;47.808;19.004;2022-10-16T03:27:26;20.60;61.10
39969;DHT22;25648;47.808;19.004;2022-10-16T03:29:51;20.30;62.00
39969;DHT22;25648;47.808;19.004;2022-10-16T03:32:17;20.20;62.20
39969;DHT22;25648;47.808;19.004;2022-10-16T03:34:43;20.00;62.40
39969;DHT22;25648;47.808;19.004;2022-10-16T03:37:09;19.80;63.10
39969;DHT22;25648;47.808;19.004;2022-10-16T03:39:35;19.70;63.10
39969;DHT22;25648;47.808;19.004;2022-10-16T03:42:00;19.70;63.20
39969;DHT22;25648;47.808;19.004;2022-10-16T03:44:26;19.90;63.20
39969;DHT22;25648;47.808;19.004;2022-10-16T03:46:52;20.20;62.50
39969;DHT22;25648;47.808;19.004;2022-10-16T03:49:17;20.40;61.60
39969;DHT22;25648;47.808;19.004;2022-10-16T03:51:43;20.70;60.90
39969;DHT22;25648;47.808;19.004;2022-10-16T03:54:10;20.90;60.20
39969;DHT22;25648;47.808;19.004;2022-10-16T03:56:35;20.80;60.40
39969;DHT22;25648;47.808;19.004;2022-10-16T03:59:01;20.60;60.30
39969;DHT22;25648;47.808;19.004;2022-10-16T04:01:27;20.50;60.40
39969;DHT22;25648;47.808;19.004;2022-10-16T04:03:52;20.10;60.60
39969;DHT22;25648;47.808;19.004;2022-10-16T04:06:18;19.50;61.70
39969;DHT22;25648;47.808;19.004;2022-10-16T04:08:44;19.00;62.80
39969;DHT22;25648;47.808;19.004;2022-10-16T04:11:10;19.00;63.40
39969;DHT22;25648;47.808;19.004;2022-10-16T04:13:36;19.40;62.80
39969;DHT22;25648;47.808;19.004;2022-10-16T04:16:02;20.00;61.30
39969;DHT22;25648;47.808;19.004;2022-10-16T04:18:27;20.50;60.00
39969;DHT22;25648;47.808;19.004;2022-10-16T04:20:54;20.80;58.90
39969;DHT22;25648;47.808;19.004;2022-10-16T04:23:19;20.90;58.60
39969;DHT22;25648;47.808;19.004;2022-10-16T04:25:45;21.10;58.40
39969;DHT22;25648;47.808;19.004;2022-10-16T04:28:11;21.20;58.10
39969;DHT22;25648;47.808;19.004;2022-10-16T04:30:38;21.20;57.80
39969;DHT22;25648;47.808;19.004;2022-10-16T04:33:04;21.20;57.80
39969;DHT22;25648;47.808;19.004;2022-10-16T04:35:30;21.30;57.70
39969;DHT22;25648;47.808;19.004;2022-10-16T04:37:58;21.30;57.40
39969;DHT22;25648;47.808;19.004;2022-10-16T04:40:23;21.20;57.40
39969;DHT22;25648;47.808;19.004;2022-10-16T04:42:49;21.10;57.50
39969;DHT22;25648;47.808;19.004;2022-10-16T04:45:15;21.00;57.50
39969;DHT22;25648;47.808;19.004;2022-10-16T04:47:40;20.90;57.80
39969;DHT22;25648;47.808;19.004;2022-10-16T04:50:06;20.80;58.00
39969;DHT22;25648;47.808;19.004;2022-10-16T04:52:32;20.50;58.60
39969;DHT22;25648;47.808;19.004;2022-10-16T04:54:58;19.70;60.70
39969;DHT22;25648;47.808;19.004;2022-10-16T04:57:27;19.50;61.00
39969;DHT22;25648;47.808;19.004;2022-10-16T04:59:53;19.80;60.10
39969;DHT22;25648;47.808;19.004;2022-10-16T05:02:19;19.90;59.60
39969;DHT22;25648;47.808;19.004;2022-10-16T05:04:44;20.10;59.00
39969;DHT22;25648;47.808;19.004;2022-10-16T05:07:10;20.20;58.90
39969;DHT22;25648;47.808;19.004;2022-10-16T05:09:36;20.20;59.00
39969;DHT22;25648;47.808;19.004;2022-10-16T05:12:01;19.90;59.50
39969;DHT22;25648;47.808;19.004;2022-10-16T05:14:29;19.90;59.70
39969;DHT22;25648;47.808;19.004;2022-10-16T05:16:54;19.70;59.80
39969;DHT22;25648;47.808;19.004;2022-10-16T05:19:20;19.60;59.90
39969;DHT22;25648;47.808;19.004;2022-10-16T05:21:46;19.60;59.90
39969;DHT22;25648;47.808;19.004;2022-10-16T05:24:11;19.70;59.70
39969;DHT22;25648;47.808;19.004;2022-10-16T05:26:37;19.70;59.90
39969;DHT22;25648;47.808;19.004;2022-10-16T05:29:03;19.80;59.90
39969;DHT22;25648;47.808;19.004;2022-10-16T05:31:29;19.80;59.90
39969;DHT22;25648;47.808;19.004;2022-10-16T05:34:01;19.90;59.70
39969;DHT22;25648;47.808;19.004;2022-10-16T05:36:27;20.00;59.20
39969;DHT22;25648;47.808;19.004;2022-10-16T05:38:53;20.10;59.30
39969;DHT22;25648;47.808;19.004;2022-10-16T05:41:19;20.00;59.40
39969;DHT22;25648;47.808;19.004;2022-10-16T05:43:47;20.10;59.60
39969;DHT22;25648;47.808;19.004;2022-10-16T05:46:20;20.10;59.70
39969;DHT22;25648;47.808;19.004;2022-10-16T05:48:46;20.10;59.80
39969;DHT22;25648;47.808;19.004;2022-10-16T05:51:14;20.10;59.80
39969;DHT22;25648;47.808;19.004;2022-10-16T05:53:41;20.00;59.90
39969;DHT22;25648;47.808;19.004;2022-10-16T05:56:09;19.80;60.40
39969;DHT22;25648;47.808;19.004;2022-10-16T05:58:36;20.00;60.00
39969;DHT22;25648;47.808;19.004;2022-10-16T06:01:11;20.00;60.30
39969;DHT22;25648;47.808;19.004;2022-10-16T06:03:37;20.00;60.00
39969;DHT22;25648;47.808;19.004;2022-10-16T06:06:14;19.90;60.40
39969;DHT22;25648;47.808;19.004;2022-10-16T06:08:41;19.90;60.40
39969;DHT22;25648;47.808;19.004;2022-10-16T06:11:09;19.90;60.70
39969;DHT22;25648;47.808;19.004;2022-10-16T06:13:36;19.80;60.60
39969;DHT22;25648;47.808;19.004;2022-10-16T06:16:02;19.40;61.20
39969;DHT22;25648;47.808;19.004;2022-10-16T06:18:29;18.90;62.10
39969;DHT22;25648;47.808;19.004;2022-10-16T06:20:55;18.30;63.70
39969;DHT22;25648;47.808;19.004;2022-10-16T06:23:21;18.10;63.90
39969;DHT22;25648;47.808;19.004;2022-10-16T06:25:47;18.00;64.00
39969;DHT22;25648;47.808;19.004;2022-10-16T06:28:14;18.00;64.40
39969;DHT22;25648;47.808;19.004;2022-10-16T06:30:40;18.30;64.30
39969;DHT22;25648;47.808;19.004;2022-10-16T06:33:10;18.40;63.40
39969;DHT22;25648;47.808;19.004;2022-10-16T06:35:36;18.30;63.60
39969;DHT22;25648;47.808;19.004;2022-10-16T06:38:02;18.20;64.10
39969;DHT22;25648;47.808;19.004;2022-10-16T06:40:27;18.40;63.20
39969;DHT22;25648;47.808;19.004;2022-10-16T06:42:55;18.30;63.90
39969;DHT22;25648;47.808;19.004;2022-10-16T06:45:21;18.60;64.00
39969;DHT22;25648;47.808;19.004;2022-10-16T06:47:46;19.00;62.70
39969;DHT22;25648;47.808;19.004;2022-10-16T06:50:12;19.30;61.80
39969;DHT22;25648;47.808;19.004;2022-10-16T06:52:37;19.30;61.30
39969;DHT22;25648;47.808;19.004;2022-10-16T06:55:03;19.50;61.00
39969;DHT22;25648;47.808;19.004;2022-10-16T06:57:29;19.70;60.70
39969;DHT22;25648;47.808;19.004;2022-10-16T06:59:55;19.60;61.00
39969;DHT22;25648;47.808;19.004;2022-10-16T07:02:21;19.40;61.30
39969;DHT22;25648;47.808;19.004;2022-10-16T07:04:46;18.90;62.00
39969;DHT22;25648;47.808;19.004;2022-10-16T07:07:12;18.80;62.80
39969;DHT22;25648;47.808;19.004;2022-10-16T07:09:37;19.10;62.60
39969;DHT22;25648;47.808;19.004;2022-10-16T07:12:03;19.10;62.00
39969;DHT22;25648;47.808;19.004;2022-10-16T07:14:29;18.80;62.50
39969;DHT22;25648;47.808;19.004;2022-10-16T07:16:55;18.80;63.00
39969;DHT22;25648;47.808;19.004;2022-10-16T07:19:21;19.10;62.80
39969;DHT22;25648;47.808;19.004;2022-10-16T07:21:46;19.50;61.60
39969;DHT22;25648;47.808;19.004;2022-10-16T07:24:14;19.40;61.80
39969;DHT22;25648;47.808;19.004;2022-10-16T07:26:41;19.80;61.30
39969;DHT22;25648;47.808;19.004;2022-10-16T07:29:13;20.30;60.20
39969;DHT22;25648;47.808;19.004;2022-10-16T07:31:43;20.60;60.10
39969;DHT22;25648;47.808;19.004;2022-10-16T07:34:10;20.30;60.00
39969;DHT22;25648;47.808;19.004;2022-10-16T07:36:36;20.30;60.60
39969;DHT22;25648;47.808;19.004;2022-10-16T07:39:02;20.60;60.10
39969;DHT22;25648;47.808;19.004;2022-10-16T07:41:28;20.80;59.50
39969;DHT22;25648;47.808;19.004;2022-10-16T07:43:54;20.90;59.20
39969;DHT22;25648;47.808;19.004;2022-10-16T07:46:21;20.80;59.50
39969;DHT22;25648;47.808;19.004;2022-10-16T07:48:47;20.60;59.30
39969;DHT22;25648;47.808;19.004;2022-10-16T07:51:19;20.60;59.40
39969;DHT22;25648;47.808;19.004;2022-10-16T07:53:45;20.90;59.90
39969;DHT22;25648;47.808;19.004;2022-10-16T07:56:11;21.00;57.20
39969;DHT22;25648;47.808;19.004;2022-10-16T07:58:37;20.50;58.20
39969;DHT22;25648;47.808;19.004;2022-10-16T08:01:08;20.30;58.60
39969;DHT22;25648;47.808;19.004;2022-10-16T08:03:34;20.30;58.10
39969;DHT22;25648;47.808;19.004;2022-10-16T08:06:00;20.10;59.30
39969;DHT22;25648;47.808;19.004;2022-10-16T08:08:27;20.40;58.40
39969;DHT22;25648;47.808;19.004;2022-10-16T08:10:53;20.50;58.40
39969;DHT22;25648;47.808;19.004;2022-10-16T08:13:19;20.80;57.70
39969;DHT22;25648;47.808;19.004;2022-10-16T08:15:45;21.00;57.10
39969;DHT22;25648;47.808;19.004;2022-10-16T08:18:13;21.20;56.60
39969;DHT22;25648;47.808;19.004;2022-10-16T08:20:39;20.80;57.00
39969;DHT22;25648;47.808;19.004;2022-10-16T08:23:06;21.00;57.60
39969;DHT22;25648;47.808;19.004;2022-10-16T08:25:46;21.30;56.90
39969;DHT22;25648;47.808;19.004;2022-10-16T08:28:12;21.40;56.30
39969;DHT22;25648;47.808;19.004;2022-10-16T08:30:38;21.30;57.00
39969;DHT22;25648;47.808;19.004;2022-10-16T08:33:04;22.00;56.00
39969;DHT22;25648;47.808;19.004;2022-10-16T08:35:30;22.20;56.00
39969;DHT22;25648;47.808;19.004;2022-10-16T08:37:56;22.50;55.20
39969;DHT22;25648;47.808;19.004;2022-10-16T08:40:28;22.40;54.90
39969;DHT22;25648;47.808;19.004;2022-10-16T08:51:31;21.80;56.40
39969;DHT22;25648;47.808;19.004;2022-10-16T08:54:05;22.00;55.40
39969;DHT22;25648;47.808;19.004;2022-10-16T08:56:32;22.00;55.30
39969;DHT22;25648;47.808;19.004;2022-10-16T08:58:59;21.90;55.90
39969;DHT22;25648;47.808;19.004;2022-10-16T09:01:37;21.50;56.50
39969;DHT22;25648;47.808;19.004;2022-10-16T09:14:45;22.30;56.30
39969;DHT22;25648;47.808;19.004;2022-10-16T09:17:24;22.80;55.30
39969;DHT22;25648;47.808;19.004;2022-10-16T09:25:30;22.40;55.20
39969;DHT22;25648;47.808;19.004;2022-10-16T09:27:56;22.20;56.50
39969;DHT22;25648;47.808;19.004;2022-10-16T09:30:22;22.70;56.10
39969;DHT22;25648;47.808;19.004;2022-10-16T09:32:52;23.00;55.10
39969;DHT22;25648;47.808;19.004;2022-10-16T09:35:33;23.20;54.90
39969;DHT22;25648;47.808;19.004;2022-10-16T09:38:00;23.40;55.10
39969;DHT22;25648;47.808;19.004;2022-10-16T09:40:31;23.00;53.70
39969;DHT22;25648;47.808;19.004;2022-10-16T09:43:05;22.50;55.30
39969;DHT22;25648;47.808;19.004;2022-10-16T09:45:35;22.90;55.00
39969;DHT22;25648;47.808;19.004;2022-10-16T09:48:10;23.40;55.30
39969;DHT22;25648;47.808;19.004;2022-10-16T09:50:36;23.60;54.60
39969;DHT22;25648;47.808;19.004;2022-10-16T09:53:12;24.10;53.80
39969;DHT22;25648;47.808;19.004;2022-10-16T09:55:56;24.00;53.50
39969;DHT22;25648;47.808;19.004;2022-10-16T09:58:23;24.10;53.60
39969;DHT22;25648;47.808;19.004;2022-10-16T10:00:52;24.40;53.80
39969;DHT22;25648;47.808;19.004;2022-10-16T10:03:44;24.70;53.10
39969;DHT22;25648;47.808;19.004;2022-10-16T10:06:25;24.60;53.20
39969;DHT22;25648;47.808;19.004;2022-10-16T10:09:30;23.90;53.20
39969;DHT22;25648;47.808;19.004;2022-10-16T10:11:54;23.50;55.00
39969;DHT22;25648;47.808;19.004;2022-10-16T10:14:43;23.90;53.80
39969;DHT22;25648;47.808;19.004;2022-10-16T10:17:19;23.90;53.90
39969;DHT22;25648;47.808;19.004;2022-10-16T10:22:45;24.60;53.20
39969;DHT22;25648;47.808;19.004;2022-10-16T10:30:20;24.40;53.50
39969;DHT22;25648;47.808;19.004;2022-10-16T10:33:12;24.80;53.20
39969;DHT22;25648;47.808;19.004;2022-10-16T10:36:11;25.20;52.70
39969;DHT22;25648;47.808;19.004;2022-10-16T10:39:06;25.50;51.80
39969;DHT22;25648;47.808;19.004;2022-10-16T10:49:38;25.80;51.50
39969;DHT22;25648;47.808;19.004;2022-10-16T10:57:35;26.10;50.90
39969;DHT22;25648;47.808;19.004;2022-10-16T11:00:15;25.30;52.60
39969;DHT22;25648;47.808;19.004;2022-10-16T11:05:56;25.60;51.90
39969;DHT22;25648;47.808;19.004;2022-10-16T11:08:32;25.60;52.00
39969;DHT22;25648;47.808;19.004;2022-10-16T11:11:08;25.30;52.10
39969;DHT22;25648;47.808;19.004;2022-10-16T11:16:17;23.90;54.50
39969;DHT22;25648;47.808;19.004;2022-10-16T11:21:14;24.60;53.30
39969;DHT22;25648;47.808;19.004;2022-10-16T11:23:59;24.50;53.40
39969;DHT22;25648;47.808;19.004;2022-10-16T11:26:30;24.70;52.80
39969;DHT22;25648;47.808;19.004;2022-10-16T11:28:59;24.80;53.20
39969;DHT22;25648;47.808;19.004;2022-10-16T11:31:42;25.10;52.80
39969;DHT22;25648;47.808;19.004;2022-10-16T11:34:36;25.50;52.10
39969;DHT22;25648;47.808;19.004;2022-10-16T11:37:38;26.00;52.00
39969;DHT22;25648;47.808;19.004;2022-10-16T11:40:30;26.00;51.90
39969;DHT22;25648;47.808;19.004;2022-10-16T11:43:12;25.90;52.00
39969;DHT22;25648;47.808;19.004;2022-10-16T11:45:43;26.20;51.90
39969;DHT22;25648;47.808;19.004;2022-10-16T11:48:27;26.50;51.70
39969;DHT22;25648;47.808;19.004;2022-10-16T11:51:08;26.30;51.60
39969;DHT22;25648;47.808;19.004;2022-10-16T11:53:51;25.70;50.60
39969;DHT22;25648;47.808;19.004;2022-10-16T11:56:20;25.80;51.80
39969;DHT22;25648;47.808;19.004;2022-10-16T11:59:06;25.80;52.50
39969;DHT22;25648;47.808;19.004;2022-10-16T12:01:38;25.90;51.20
39969;DHT22;25648;47.808;19.004;2022-10-16T12:04:46;26.00;50.70
39969;DHT22;25648;47.808;19.004;2022-10-16T12:07:21;25.70;50.20
39969;DHT22;25648;47.808;19.004;2022-10-16T12:09:50;25.50;50.10
39969;DHT22;25648;47.808;19.004;2022-10-16T12:15:02;25.40;50.00
39969;DHT22;25648;47.808;19.004;2022-10-16T12:17:38;25.40;50.20
39969;DHT22;25648;47.808;19.004;2022-10-16T12:22:47;24.90;49.90
39969;DHT22;25648;47.808;19.004;2022-10-16T12:25:21;24.80;50.70
39969;DHT22;25648;47.808;19.004;2022-10-16T12:27:57;24.80;51.30
39969;DHT22;25648;47.808;19.004;2022-10-16T12:30:26;24.70;51.10
39969;DHT22;25648;47.808;19.004;2022-10-16T12:33:21;24.70;50.90
39969;DHT22;25648;47.808;19.004;2022-10-16T12:35:49;25.20;51.10
39969;DHT22;25648;47.808;19.004;2022-10-16T12:38:52;25.70;50.10
39969;DHT22;25648;47.808;19.004;2022-10-16T12:41:24;25.70;49.90
39969;DHT22;25648;47.808;19.004;2022-10-16T12:43:50;25.60;49.70
39969;DHT22;25648;47.808;19.004;2022-10-16T12:48:43;25.40;50.80
39969;DHT22;25648;47.808;19.004;2022-10-16T12:51:35;25.40;50.20
39969;DHT22;25648;47.808;19.004;2022-10-16T12:59:50;25.60;50.20
39969;DHT22;25648;47.808;19.004;2022-10-16T13:08:17;25.40;50.00
39969;DHT22;25648;47.808;19.004;2022-10-16T13:16:24;26.10;50.10
39969;DHT22;25648;47.808;19.004;2022-10-16T13:18:59;26.00;49.30
39969;DHT22;25648;47.808;19.004;2022-10-16T13:29:10;26.30;49.60
39969;DHT22;25648;47.808;19.004;2022-10-16T13:31:38;26.30;49.50
39969;DHT22;25648;47.808;19.004;2022-10-16T13:34:05;25.80;49.50
39969;DHT22;25648;47.808;19.004;2022-10-16T13:36:44;25.30;50.20
39969;DHT22;25648;47.808;19.004;2022-10-16T13:39:24;25.50;50.10
39969;DHT22;25648;47.808;19.004;2022-10-16T13:42:17;25.70;50.20
39969;DHT22;25648;47.808;19.004;2022-10-16T13:44:50;25.90;50.50
39969;DHT22;25648;47.808;19.004;2022-10-16T13:49:43;25.80;50.40
39969;DHT22;25648;47.808;19.004;2022-10-16T13:52:20;25.80;50.20
39969;DHT22;25648;47.808;19.004;2022-10-16T13:54:46;25.80;50.30
39969;DHT22;25648;47.808;19.004;2022-10-16T13:57:16;26.00;49.90
39969;DHT22;25648;47.808;19.004;2022-10-16T13:59:43;26.10;49.70
39969;DHT22;25648;47.808;19.004;2022-10-16T14:02:30;26.10;49.70
39969;DHT22;25648;47.808;19.004;2022-10-16T14:04:57;25.90;49.60
39969;DHT22;25648;47.808;19.004;2022-10-16T14:07:32;25.80;49.70
39969;DHT22;25648;47.808;19.004;2022-10-16T14:10:07;25.80;50.00
39969;DHT22;25648;47.808;19.004;2022-10-16T14:12:43;25.80;49.70
39969;DHT22;25648;47.808;19.004;2022-10-16T14:15:17;25.80;49.90
39969;DHT22;25648;47.808;19.004;2022-10-16T14:17:48;26.10;50.40
39969;DHT22;25648;47.808;19.004;2022-10-16T14:20:15;26.20;50.20
39969;DHT22;25648;47.808;19.004;2022-10-16T14:22:42;26.30;50.60
39969;DHT22;25648;47.808;19.004;2022-10-16T14:28:20;26.50;50.40
39969;DHT22;25648;47.808;19.004;2022-10-16T14:33:47;26.40;50.50
39969;DHT22;25648;47.808;19.004;2022-10-16T14:36:14;26.50;50.90
39969;DHT22;25648;47.808;19.004;2022-10-16T14:41:29;26.90;51.00
39969;DHT22;25648;47.808;19.004;2022-10-16T14:44:03;27.00;51.10
39969;DHT22;25648;47.808;19.004;2022-10-16T14:46:35;27.00;51.10
39969;DHT22;25648;47.808;19.004;2022-10-16T14:49:16;27.00;51.40
39969;DHT22;25648;47.808;19.004;2022-10-16T14:51:43;26.90;51.90
39969;DHT22;25648;47.808;19.004;2022-10-16T14:54:20;26.80;52.30
39969;DHT22;25648;47.808;19.004;2022-10-16T14:56:57;26.70;52.60
39969;DHT22;25648;47.808;19.004;2022-10-16T14:59:41;26.60;52.80
39969;DHT22;25648;47.808;19.004;2022-10-16T15:04:53;26.20;53.80
39969;DHT22;25648;47.808;19.004;2022-10-16T15:07:19;25.90;54.30
39969;DHT22;25648;47.808;19.004;2022-10-16T15:09:44;25.70;54.90
39969;DHT22;25648;47.808;19.004;2022-10-16T15:12:10;25.70;55.60
39969;DHT22;25648;47.808;19.004;2022-10-16T15:14:36;25.70;55.70
39969;DHT22;25648;47.808;19.004;2022-10-16T15:17:02;25.70;55.90
39969;DHT22;25648;47.808;19.004;2022-10-16T15:19:28;25.50;55.70
39969;DHT22;25648;47.808;19.004;2022-10-16T15:21:53;25.50;54.90
39969;DHT22;25648;47.808;19.004;2022-10-16T15:24:19;25.60;54.60
39969;DHT22;25648;47.808;19.004;2022-10-16T15:26:45;25.70;54.20
39969;DHT22;25648;47.808;19.004;2022-10-16T15:29:15;25.80;53.90
39969;DHT22;25648;47.808;19.004;2022-10-16T15:31:41;25.80;53.90
39969;DHT22;25648;47.808;19.004;2022-10-16T15:34:09;25.90;53.00
39969;DHT22;25648;47.808;19.004;2022-10-16T15:36:36;25.90;52.60
39969;DHT22;25648;47.808;19.004;2022-10-16T15:39:15;25.90;53.40
39969;DHT22;25648;47.808;19.004;2022-10-16T15:41:42;25.80;53.50
39969;DHT22;25648;47.808;19.004;2022-10-16T15:44:08;25.70;53.90
39969;DHT22;25648;47.808;19.004;2022-10-16T15:46:34;25.40;54.50
39969;DHT22;25648;47.808;19.004;2022-10-16T15:49:00;25.00;55.00
39969;DHT22;25648;47.808;19.004;2022-10-16T15:51:27;25.00;55.00
39969;DHT22;25648;47.808;19.004;2022-10-16T15:53:58;25.10;54.90
39969;DHT22;25648;47.808;19.004;2022-10-16T15:56:24;25.20;54.70
39969;DHT22;25648;47.808;19.004;2022-10-16T15:58:52;25.10;54.90
39969;DHT22;25648;47.808;19.004;2022-10-16T16:01:19;25.10;54.90
39969;DHT22;25648;47.808;19.004;2022-10-16T16:03:44;25.10;54.90
39969;DHT22;25648;47.808;19.004;2022-10-16T16:06:12;24.90;55.30
39969;DHT22;25648;47.808;19.004;2022-10-16T16:08:39;24.70;55.10
39969;DHT22;25648;47.808;19.004;2022-10-16T16:11:07;24.70;55.00
39969;DHT22;25648;47.808;19.004;2022-10-16T16:13:33;24.20;55.70
39969;DHT22;25648;47.808;19.004;2022-10-16T16:15:59;23.90;56.30
39969;DHT22;25648;47.808;19.004;2022-10-16T16:18:25;23.90;56.70
39969;DHT22;25648;47.808;19.004;2022-10-16T16:20:52;24.10;56.50
39969;DHT22;25648;47.808;19.004;2022-10-16T16:23:18;24.10;56.10
39969;DHT22;25648;47.808;19.004;2022-10-16T16:25:45;24.20;56.20
39969;DHT22;25648;47.808;19.004;2022-10-16T16:28:11;23.90;56.60
39969;DHT22;25648;47.808;19.004;2022-10-16T16:30:40;23.90;56.40
39969;DHT22;25648;47.808;19.004;2022-10-16T16:33:09;23.90;56.30
39969;DHT22;25648;47.808;19.004;2022-10-16T16:35:34;23.90;56.20
39969;DHT22;25648;47.808;19.004;2022-10-16T16:38:00;23.70;56.70
39969;DHT22;25648;47.808;19.004;2022-10-16T16:40:26;23.60;56.80
39969;DHT22;25648;47.808;19.004;2022-10-16T16:42:52;23.70;56.50
39969;DHT22;25648;47.808;19.004;2022-10-16T16:45:18;23.50;56.90
39969;DHT22;25648;47.808;19.004;2022-10-16T16:47:43;23.50;56.70
39969;DHT22;25648;47.808;19.004;2022-10-16T16:50:09;23.30;57.10
39969;DHT22;25648;47.808;19.004;2022-10-16T16:52:35;23.20;57.70
39969;DHT22;25648;47.808;19.004;2022-10-16T16:55:01;22.90;58.00
39969;DHT22;25648;47.808;19.004;2022-10-16T16:57:27;22.80;58.30
39969;DHT22;25648;47.808;19.004;2022-10-16T17:00:05;22.90;57.90
39969;DHT22;25648;47.808;19.004;2022-10-16T17:02:31;23.00;57.40
39969;DHT22;25648;47.808;19.004;2022-10-16T17:04:58;23.00;57.30
39969;DHT22;25648;47.808;19.004;2022-10-16T17:07:23;22.90;57.70
39969;DHT22;25648;47.808;19.004;2022-10-16T17:09:51;22.60;58.30
39969;DHT22;25648;47.808;19.004;2022-10-16T17:12:16;22.80;57.80
39969;DHT22;25648;47.808;19.004;2022-10-16T17:14:42;22.80;58.00
39969;DHT22;25648;47.808;19.004;2022-10-16T17:17:14;22.90;58.00
39969;DHT22;25648;47.808;19.004;2022-10-16T17:19:40;22.90;57.40
39969;DHT22;25648;47.808;19.004;2022-10-16T17:22:05;22.90;57.20
39969;DHT22;25648;47.808;19.004;2022-10-16T17:24:31;23.10;57.00
39969;DHT22;25648;47.808;19.004;2022-10-16T17:26:57;22.90;57.60